createdAt,value
2018-12-12T00:00:40.345Z,23.15
2018-12-12T00:03:06.995Z,23.16
2018-12-12T00:05:33.757Z,23.15
2018-12-12T00:08:00.411Z,23.16
2018-12-12T00:10:27.104Z,23.18
2018-12-12T00:12:53.740Z,23.16
2018-12-12T00:15:20.391Z,23.18
2018-12-12T00:17:47.054Z,23.15
2018-12-12T00:20:13.735Z,23.14
2018-12-12T00:22:40.529Z,23.13
2018-12-12T00:25:07.172Z,22.88
2018-12-12T00:27:33.916Z,22.60
2018-12-12T00:30:00.561Z,22.47
2018-12-12T00:32:27.208Z,22.57
2018-12-12T00:34:53.906Z,22.77
2018-12-12T00:37:23.694Z,22.81
2018-12-12T00:39:50.334Z,22.86
2018-12-12T00:42:17.866Z,22.94
2018-12-12T00:44:43.688Z,22.97
2018-12-12T00:47:10.392Z,23.02
2018-12-12T00:49:37.033Z,23.04
2018-12-12T00:52:03.763Z,23.10
2018-12-12T00:54:30.417Z,23.07
2018-12-12T00:56:57.104Z,23.11
2018-12-12T00:59:23.739Z,23.12
2018-12-12T01:01:50.390Z,23.08
2018-12-12T01:04:17.046Z,23.12
2018-12-12T01:06:43.684Z,23.11
2018-12-12T01:09:10.368Z,23.11
2018-12-12T01:11:37.089Z,23.14
2018-12-12T01:14:03.728Z,23.12
2018-12-12T01:16:30.379Z,23.12
2018-12-12T01:18:57.030Z,23.14
2018-12-12T01:21:23.668Z,23.14
2018-12-12T01:23:50.310Z,23.13
2018-12-12T01:26:17.046Z,23.13
2018-12-12T01:28:43.702Z,23.15
2018-12-12T01:31:10.367Z,23.14
2018-12-12T01:33:37.015Z,23.15
2018-12-12T01:36:03.664Z,23.13
2018-12-12T01:38:30.305Z,23.16
2018-12-12T01:40:56.998Z,23.16
2018-12-12T01:43:23.709Z,23.15
2018-12-12T01:45:50.397Z,23.18
2018-12-12T01:48:17.038Z,23.21
2018-12-12T01:50:43.689Z,23.18
2018-12-12T01:53:10.330Z,23.18
2018-12-12T01:55:37.033Z,23.23
2018-12-12T01:58:03.670Z,23.23
2018-12-12T02:00:30.333Z,23.19
2018-12-12T02:02:56.976Z,23.24
2018-12-12T02:05:23.621Z,23.22
2018-12-12T02:07:50.256Z,23.22
2018-12-12T02:10:16.918Z,23.22
2018-12-12T02:12:43.563Z,23.22
2018-12-12T02:15:10.212Z,23.22
2018-12-12T02:17:36.908Z,23.27
2018-12-12T02:20:03.545Z,23.25
2018-12-12T02:22:30.190Z,23.24
2018-12-12T02:24:56.838Z,23.23
2018-12-12T02:27:23.546Z,23.25
2018-12-12T02:29:50.198Z,23.26
2018-12-12T02:32:16.899Z,23.27
2018-12-12T02:34:43.528Z,23.28
2018-12-12T02:37:10.269Z,23.22
2018-12-12T02:39:36.920Z,23.24
2018-12-12T02:42:03.566Z,23.24
2018-12-12T02:44:30.211Z,23.22
2018-12-12T02:46:56.960Z,23.24
2018-12-12T02:49:23.607Z,23.25
2018-12-12T02:51:50.266Z,23.22
2018-12-12T02:54:16.940Z,23.22
2018-12-12T02:56:43.604Z,23.23
2018-12-12T02:59:10.288Z,23.22
2018-12-12T03:01:36.905Z,23.22
2018-12-12T03:04:03.628Z,23.28
2018-12-12T03:06:30.350Z,23.26
2018-12-12T03:08:56.910Z,23.24
2018-12-12T03:11:23.550Z,23.24
2018-12-12T03:13:50.186Z,23.26
2018-12-12T03:16:16.884Z,23.24
2018-12-12T03:18:43.540Z,23.25
2018-12-12T03:21:10.191Z,23.23
2018-12-12T03:23:36.836Z,23.24
2018-12-12T03:26:03.477Z,23.25
2018-12-12T03:28:30.171Z,23.25
2018-12-12T03:30:56.861Z,23.27
2018-12-12T03:33:26.965Z,23.26
2018-12-12T03:35:53.610Z,23.23
2018-12-12T03:38:20.263Z,23.25
2018-12-12T03:40:46.955Z,23.26
2018-12-12T03:43:13.654Z,23.23
2018-12-12T03:45:40.288Z,23.26
2018-12-12T03:48:06.921Z,23.20
2018-12-12T03:50:33.626Z,23.26
2018-12-12T03:53:00.320Z,23.25
2018-12-12T03:55:26.982Z,23.26
2018-12-12T03:57:53.615Z,23.23
2018-12-12T04:00:20.283Z,23.26
2018-12-12T04:02:46.966Z,23.23
2018-12-12T04:05:13.612Z,23.24
2018-12-12T04:07:40.241Z,23.24
2018-12-12T04:10:06.896Z,23.24
2018-12-12T04:12:33.584Z,23.24
2018-12-12T04:15:00.238Z,23.25
2018-12-12T04:17:26.922Z,23.24
2018-12-12T04:19:53.652Z,23.22
2018-12-12T04:22:20.234Z,23.24
2018-12-12T04:24:46.935Z,23.24
2018-12-12T04:27:13.573Z,23.26
2018-12-12T04:29:40.217Z,23.27
2018-12-12T04:32:06.877Z,23.25
2018-12-12T04:34:33.570Z,23.27
2018-12-12T04:37:00.207Z,23.28
2018-12-12T04:39:26.862Z,23.24
2018-12-12T04:41:53.498Z,23.26
2018-12-12T04:44:20.142Z,23.25
2018-12-12T04:46:46.787Z,23.27
2018-12-12T04:49:13.427Z,23.47
2018-12-12T04:51:40.078Z,23.37
2018-12-12T04:54:06.716Z,23.47
2018-12-12T04:56:33.357Z,23.33
2018-12-12T04:59:00.046Z,23.29
2018-12-12T05:01:26.732Z,23.24
2018-12-12T05:03:54.671Z,23.31
2018-12-12T05:06:20.239Z,23.38
2018-12-12T05:08:46.952Z,23.51
2018-12-12T05:11:13.667Z,23.30
2018-12-12T05:13:40.307Z,23.30
2018-12-12T05:16:06.936Z,23.29
2018-12-12T05:18:33.591Z,23.28
2018-12-12T05:21:00.243Z,23.27
2018-12-12T05:23:26.934Z,23.33
2018-12-12T05:25:53.570Z,23.67
2018-12-12T05:28:20.223Z,23.52
2018-12-12T05:30:46.867Z,23.41
2018-12-12T05:33:13.563Z,23.34
2018-12-12T05:35:40.252Z,23.32
2018-12-12T05:38:06.886Z,23.38
2018-12-12T05:40:33.526Z,23.30
2018-12-12T05:43:00.230Z,23.34
2018-12-12T05:45:26.883Z,23.34
2018-12-12T05:47:53.513Z,23.37
2018-12-12T05:50:20.151Z,23.38
2018-12-12T05:52:46.791Z,23.40
2018-12-12T05:55:13.442Z,23.38
2018-12-12T05:57:40.141Z,23.65
2018-12-12T06:00:06.953Z,23.48
2018-12-12T06:02:33.600Z,23.43
2018-12-12T06:05:00.246Z,23.40
2018-12-12T06:07:26.949Z,23.46
2018-12-12T06:09:53.584Z,23.47
2018-12-12T06:12:20.291Z,23.47
2018-12-12T06:14:46.877Z,23.51
2018-12-12T06:17:13.531Z,23.48
2018-12-12T06:19:40.170Z,23.49
2018-12-12T06:22:06.864Z,23.51
2018-12-12T06:24:33.509Z,23.52
2018-12-12T06:27:00.154Z,23.52
2018-12-12T06:29:26.853Z,23.84
2018-12-12T06:31:53.503Z,23.80
2018-12-12T06:34:20.154Z,23.79
2018-12-12T06:36:46.841Z,23.82
2018-12-12T06:39:13.515Z,23.87
2018-12-12T06:41:40.166Z,23.91
2018-12-12T06:44:06.813Z,23.81
2018-12-12T06:46:33.452Z,23.91
2018-12-12T06:49:00.116Z,23.85
2018-12-12T06:51:26.873Z,23.86
2018-12-12T06:53:53.582Z,23.86
2018-12-12T06:56:20.230Z,23.89
2018-12-12T06:58:46.882Z,23.83
2018-12-12T07:01:13.619Z,23.85
2018-12-12T07:03:40.347Z,23.90
2018-12-12T07:06:07.132Z,23.81
2018-12-12T07:08:33.779Z,23.79
2018-12-12T07:11:00.482Z,23.79
2018-12-12T07:13:27.160Z,23.79
2018-12-12T07:15:53.798Z,23.82
2018-12-12T07:18:20.459Z,23.84
2018-12-12T07:20:47.156Z,24.03
2018-12-12T07:23:13.814Z,23.88
2018-12-12T07:25:40.474Z,23.85
2018-12-12T07:28:07.185Z,23.89
2018-12-12T07:30:33.826Z,23.86
2018-12-12T07:33:00.532Z,24.05
2018-12-12T07:35:27.220Z,23.98
2018-12-12T07:37:53.958Z,23.94
2018-12-12T07:40:20.768Z,23.96
2018-12-12T07:42:47.374Z,23.90
2018-12-12T07:45:14.036Z,23.92
2018-12-12T07:47:40.686Z,23.99
2018-12-12T07:50:07.338Z,24.09
2018-12-12T07:52:34.109Z,24.05
2018-12-12T07:55:00.973Z,24.26
2018-12-12T07:57:27.718Z,24.16
2018-12-12T07:59:54.371Z,24.08
2018-12-12T08:02:21.070Z,24.07
2018-12-12T08:04:47.769Z,24.00
2018-12-12T08:07:17.176Z,24.09
2018-12-12T08:09:43.831Z,24.09
2018-12-12T08:12:10.505Z,24.34
2018-12-12T08:14:37.232Z,24.33
2018-12-12T08:17:03.880Z,24.25
2018-12-12T08:19:30.525Z,24.13
2018-12-12T08:21:57.184Z,24.22
2018-12-12T08:24:23.843Z,24.12
2018-12-12T08:26:50.649Z,23.88
2018-12-12T08:29:17.311Z,23.70
2018-12-12T08:31:43.954Z,23.48
2018-12-12T08:34:10.754Z,23.51
2018-12-12T08:36:37.469Z,23.81
2018-12-12T08:39:04.249Z,23.91
2018-12-12T08:41:30.959Z,24.04
2018-12-12T08:43:59.057Z,24.15
2018-12-12T08:46:24.248Z,24.28
2018-12-12T08:48:51.226Z,24.29
2018-12-12T08:51:20.615Z,24.31
2018-12-12T08:53:49.961Z,24.21
2018-12-12T08:56:19.490Z,24.18
2018-12-12T08:58:46.185Z,24.16
2018-12-12T09:01:12.879Z,24.32
2018-12-12T09:03:42.367Z,24.14
2018-12-12T09:06:09.075Z,24.13
2018-12-12T09:08:35.765Z,24.07
2018-12-12T09:11:02.500Z,24.08
2018-12-12T09:13:32.585Z,24.01
2018-12-12T09:15:59.340Z,24.09
2018-12-12T09:18:26.019Z,23.40
2018-12-12T09:20:52.674Z,24.21
2018-12-12T09:23:19.451Z,24.46
2018-12-12T09:25:46.207Z,24.27
2018-12-12T09:28:12.915Z,24.32
2018-12-12T09:30:39.558Z,24.26
2018-12-12T09:33:07.266Z,24.26
2018-12-12T09:35:33.923Z,24.30
2018-12-12T09:38:00.566Z,24.39
2018-12-12T09:40:27.236Z,24.48
2018-12-12T09:42:53.908Z,24.57
2018-12-12T09:45:21.790Z,24.53
2018-12-12T09:47:47.199Z,24.53
2018-12-12T09:50:13.850Z,24.61
2018-12-12T09:52:40.524Z,24.68
2018-12-12T09:55:07.265Z,24.70
2018-12-12T09:57:33.968Z,24.68
2018-12-12T10:00:00.630Z,24.74
2018-12-12T10:02:27.268Z,25.08
2018-12-12T10:04:53.982Z,24.98
2018-12-12T10:07:20.712Z,24.82
2018-12-12T10:09:47.357Z,24.80
2018-12-12T10:12:14.058Z,24.87
2018-12-12T10:14:40.710Z,24.82
2018-12-12T10:17:07.362Z,24.74
2018-12-12T10:19:34.005Z,24.71
2018-12-12T10:22:00.651Z,24.71
2018-12-12T10:24:27.319Z,24.70
2018-12-12T10:26:54.035Z,24.59
2018-12-12T10:29:20.715Z,24.52
2018-12-12T10:31:47.360Z,24.49
2018-12-12T10:34:14.021Z,24.48
2018-12-12T10:36:40.698Z,24.42
2018-12-12T10:39:07.471Z,24.38
2018-12-12T10:41:34.118Z,24.46
2018-12-12T10:44:00.765Z,24.73
2018-12-12T10:46:27.413Z,24.48
2018-12-12T10:48:54.068Z,24.50
2018-12-12T10:51:20.735Z,24.38
2018-12-12T10:53:47.436Z,24.53
2018-12-12T10:56:14.091Z,24.43
2018-12-12T10:58:40.740Z,24.57
2018-12-12T11:01:07.523Z,24.55
2018-12-12T11:03:36.789Z,24.73
2018-12-12T11:06:03.452Z,24.60
2018-12-12T11:08:30.121Z,24.66
2018-12-12T11:10:56.787Z,24.78
2018-12-12T11:13:23.425Z,24.59
2018-12-12T11:15:50.083Z,24.53
2018-12-12T11:18:16.884Z,24.56
2018-12-12T11:20:43.541Z,24.45
2018-12-12T11:23:10.235Z,24.47
2018-12-12T11:25:36.884Z,24.62
2018-12-12T11:28:03.529Z,24.52
2018-12-12T11:30:30.192Z,24.91
2018-12-12T11:32:56.855Z,24.88
2018-12-12T11:35:23.503Z,24.79
2018-12-12T11:37:51.133Z,24.69
2018-12-12T11:40:17.812Z,24.81
2018-12-12T11:42:44.454Z,24.99
2018-12-12T11:45:11.150Z,24.93
2018-12-12T11:47:38.811Z,24.80
2018-12-12T11:50:05.464Z,24.77
2018-12-12T11:52:32.125Z,24.73
2018-12-12T11:54:58.792Z,24.76
2018-12-12T11:57:25.440Z,24.77
2018-12-12T11:59:52.117Z,24.77
2018-12-12T12:02:18.915Z,25.11
2018-12-12T12:04:45.578Z,25.04
2018-12-12T12:07:12.217Z,24.86
2018-12-12T12:09:38.879Z,24.82
2018-12-12T12:12:05.674Z,24.81
2018-12-12T12:14:32.320Z,24.80
2018-12-12T12:16:58.970Z,24.82
2018-12-12T12:19:25.611Z,24.70
2018-12-12T12:21:52.293Z,24.79
2018-12-12T12:24:18.960Z,24.78
2018-12-12T12:26:45.610Z,24.65
2018-12-12T12:29:12.262Z,24.80
2018-12-12T12:31:39.283Z,24.71
2018-12-12T12:34:05.938Z,24.62
2018-12-12T12:36:32.629Z,24.64
2018-12-12T12:38:59.401Z,24.62
2018-12-12T12:41:26.064Z,24.67
2018-12-12T12:43:53.192Z,24.51
2018-12-12T12:46:19.854Z,24.56
2018-12-12T12:48:46.575Z,24.50
2018-12-12T12:51:13.352Z,24.64
2018-12-12T12:53:40.023Z,24.61
2018-12-12T12:56:06.664Z,24.64
2018-12-12T12:58:33.317Z,24.66
2018-12-12T13:00:59.966Z,24.58
2018-12-12T13:03:26.622Z,24.44
2018-12-12T13:05:53.279Z,24.40
2018-12-12T13:08:19.931Z,24.39
2018-12-12T13:10:46.980Z,24.38
2018-12-12T13:13:13.824Z,24.48
2018-12-12T13:15:40.386Z,24.58
2018-12-12T13:18:08.050Z,24.65
2018-12-12T13:20:34.708Z,24.73
2018-12-12T13:23:01.427Z,24.93
2018-12-12T13:25:28.136Z,24.70
2018-12-12T13:27:54.808Z,24.54
2018-12-12T13:30:21.559Z,24.55
2018-12-12T13:32:48.229Z,24.69
2018-12-12T13:35:14.905Z,24.52
2018-12-12T13:37:41.570Z,24.45
2018-12-12T13:40:08.204Z,24.50
2018-12-12T13:42:34.858Z,24.64
2018-12-12T13:45:01.515Z,24.60
2018-12-12T13:47:28.147Z,24.55
2018-12-12T13:49:55.283Z,24.66
2018-12-12T13:52:21.819Z,24.41
2018-12-12T13:54:48.532Z,24.35
2018-12-12T13:57:15.213Z,24.34
2018-12-12T13:59:41.958Z,24.37
2018-12-12T14:02:08.606Z,24.37
2018-12-12T14:04:35.358Z,24.38
2018-12-12T14:07:02.013Z,24.47
2018-12-12T14:09:28.710Z,24.61
2018-12-12T14:11:55.358Z,24.55
2018-12-12T14:14:23.074Z,24.42
2018-12-12T14:16:49.737Z,24.39
2018-12-12T14:19:16.447Z,24.36
2018-12-12T14:21:43.163Z,24.37
2018-12-12T14:24:09.813Z,24.55
2018-12-12T14:26:37.663Z,24.42
2018-12-12T14:29:04.394Z,24.51
2018-12-12T14:31:34.308Z,24.56
2018-12-12T14:34:00.976Z,24.63
2018-12-12T14:36:28.015Z,24.43
2018-12-12T14:38:54.707Z,24.37
2018-12-12T14:41:21.313Z,24.48
2018-12-12T14:43:47.954Z,24.57
2018-12-12T14:46:14.632Z,24.58
2018-12-12T14:48:41.290Z,24.38
2018-12-12T14:51:10.685Z,24.60
2018-12-12T14:53:37.344Z,24.64
2018-12-12T14:56:04.006Z,24.60
2018-12-12T14:58:30.711Z,24.59
2018-12-12T15:00:57.369Z,24.49
2018-12-12T15:03:24.030Z,24.42
2018-12-12T15:05:51.693Z,24.36
2018-12-12T15:08:18.345Z,24.26
2018-12-12T15:10:45.052Z,24.22
2018-12-12T15:13:11.698Z,24.24
2018-12-12T15:15:38.378Z,24.19
2018-12-12T15:18:05.183Z,24.19
2018-12-12T15:20:31.834Z,24.28
2018-12-12T15:22:58.495Z,24.25
2018-12-12T15:25:25.142Z,24.24
2018-12-12T15:27:51.785Z,24.17
2018-12-12T15:30:20.794Z,24.19
2018-12-12T15:32:47.428Z,24.25
2018-12-12T15:35:14.125Z,24.28
2018-12-12T15:37:40.777Z,24.37
2018-12-12T15:40:07.467Z,24.27
2018-12-12T15:42:34.155Z,24.34
2018-12-12T15:45:00.856Z,24.28
2018-12-12T15:47:27.548Z,24.31
2018-12-12T15:49:54.320Z,24.29
2018-12-12T15:52:20.965Z,24.34
2018-12-12T15:54:47.651Z,24.28
2018-12-12T15:57:14.301Z,24.32
2018-12-12T15:59:40.969Z,24.30
2018-12-12T16:02:07.674Z,24.38
2018-12-12T16:04:37.697Z,24.35
2018-12-12T16:07:04.338Z,24.30
2018-12-12T16:09:30.986Z,24.32
2018-12-12T16:11:57.709Z,24.41
2018-12-12T16:14:24.361Z,24.34
2018-12-12T16:16:51.011Z,24.34
2018-12-12T16:19:17.668Z,24.29
2018-12-12T16:21:44.312Z,24.31
2018-12-12T16:24:11.019Z,24.35
2018-12-12T16:26:37.674Z,24.32
2018-12-12T16:29:04.320Z,24.18
2018-12-12T16:31:30.971Z,24.12
2018-12-12T16:33:57.615Z,23.83
2018-12-12T16:36:24.263Z,23.78
2018-12-12T16:38:50.914Z,23.81
2018-12-12T16:41:17.566Z,23.96
2018-12-12T16:43:44.221Z,24.02
2018-12-12T16:46:10.878Z,24.04
2018-12-12T16:48:37.552Z,24.14
2018-12-12T16:51:04.207Z,24.15
2018-12-12T16:53:31.001Z,24.22
2018-12-12T16:55:57.654Z,24.25
2018-12-12T16:58:24.289Z,24.26
2018-12-12T17:00:50.952Z,24.16
2018-12-12T17:03:17.597Z,24.17
2018-12-12T17:05:44.261Z,24.17
2018-12-12T17:08:10.958Z,24.26
2018-12-12T17:10:37.592Z,24.17
2018-12-12T17:13:04.250Z,24.20
2018-12-12T17:15:30.921Z,24.18
2018-12-12T17:17:57.572Z,24.17
2018-12-12T17:20:24.235Z,24.15
2018-12-12T17:22:51.100Z,24.16
2018-12-12T17:25:17.736Z,24.17
2018-12-12T17:27:44.388Z,24.15
2018-12-12T17:30:11.109Z,24.18
2018-12-12T17:32:37.762Z,24.16
2018-12-12T17:35:08.802Z,24.15
2018-12-12T17:37:31.234Z,24.14
2018-12-12T17:39:58.030Z,24.16
2018-12-12T17:42:24.690Z,24.18
2018-12-12T17:44:51.605Z,24.17
2018-12-12T17:47:18.282Z,24.27
2018-12-12T17:49:44.939Z,24.20
2018-12-12T17:52:11.771Z,24.16
2018-12-12T17:54:38.384Z,24.28
2018-12-12T17:57:05.081Z,24.17
2018-12-12T17:59:31.839Z,24.17
2018-12-12T18:01:58.616Z,24.12
2018-12-12T18:04:25.485Z,24.14
2018-12-12T18:06:52.441Z,24.13
2018-12-12T18:09:19.074Z,24.13
2018-12-12T18:11:45.899Z,24.17
2018-12-12T18:14:12.885Z,24.16
2018-12-12T18:16:39.523Z,24.11
2018-12-12T18:19:06.506Z,24.10
2018-12-12T18:21:33.644Z,24.11
2018-12-12T18:24:00.553Z,24.14
2018-12-12T18:26:28.071Z,24.14
2018-12-12T18:28:54.951Z,24.10
2018-12-12T18:31:21.900Z,24.08
2018-12-12T18:33:48.713Z,24.09
2018-12-12T18:36:15.433Z,24.09
2018-12-12T18:38:42.166Z,24.07
2018-12-12T18:41:08.822Z,24.06
2018-12-12T18:43:35.499Z,24.05
2018-12-12T18:46:02.302Z,24.02
2018-12-12T18:48:28.979Z,24.05
2018-12-12T18:50:55.621Z,24.08
2018-12-12T18:53:22.283Z,24.05
2018-12-12T18:55:48.953Z,24.00
2018-12-12T18:58:15.602Z,24.00
2018-12-12T19:00:42.268Z,23.96
2018-12-12T19:03:08.954Z,23.99
2018-12-12T19:05:35.646Z,23.99
2018-12-12T19:08:02.376Z,23.97
2018-12-12T19:10:29.038Z,23.90
2018-12-12T19:12:55.690Z,23.95
2018-12-12T19:15:22.358Z,23.92
2018-12-12T19:17:49.064Z,23.90
2018-12-12T19:20:15.652Z,23.88
2018-12-12T19:22:42.375Z,23.88
2018-12-12T19:25:09.046Z,23.89
2018-12-12T19:27:35.683Z,23.86
2018-12-12T19:30:02.356Z,23.83
2018-12-12T19:32:29.016Z,23.92
2018-12-12T19:34:55.837Z,23.84
2018-12-12T19:37:22.488Z,23.87
2018-12-12T19:39:49.160Z,23.84
2018-12-12T19:42:15.785Z,23.84
2018-12-12T19:44:42.455Z,23.82
2018-12-12T19:47:09.188Z,23.77
2018-12-12T19:49:35.834Z,23.78
2018-12-12T19:52:02.482Z,23.75
2018-12-12T19:54:29.194Z,23.76
2018-12-12T19:56:55.915Z,23.76
2018-12-12T19:59:22.715Z,23.78
2018-12-12T20:01:49.349Z,23.75
2018-12-12T20:04:16.124Z,23.77
2018-12-12T20:06:42.770Z,23.76
2018-12-12T20:09:09.431Z,23.75
2018-12-12T20:11:36.129Z,23.73
2018-12-12T20:14:02.811Z,23.72
2018-12-12T20:16:29.473Z,23.75
2018-12-12T20:18:56.103Z,23.71
2018-12-12T20:21:22.796Z,23.71
2018-12-12T20:23:49.443Z,23.70
2018-12-12T20:26:16.098Z,23.70
2018-12-12T20:28:42.748Z,23.71
2018-12-12T20:31:09.399Z,23.70
2018-12-12T20:33:36.043Z,23.68
2018-12-12T20:36:02.735Z,23.67
2018-12-12T20:38:29.402Z,23.69
2018-12-12T20:40:56.069Z,23.66
2018-12-12T20:43:22.715Z,23.66
2018-12-12T20:45:49.426Z,23.63
2018-12-12T20:48:16.081Z,23.67
2018-12-12T20:50:42.779Z,23.62
2018-12-12T20:53:09.435Z,23.66
2018-12-12T20:55:36.136Z,23.64
2018-12-12T20:58:02.786Z,23.65
2018-12-12T21:00:29.438Z,23.60
2018-12-12T21:02:56.190Z,23.63
2018-12-12T21:05:22.932Z,23.58
2018-12-12T21:07:49.575Z,23.65
2018-12-12T21:10:16.349Z,23.61
2018-12-12T21:12:43.103Z,23.58
2018-12-12T21:15:09.774Z,23.61
2018-12-12T21:17:36.469Z,23.62
2018-12-12T21:20:03.165Z,23.60
2018-12-12T21:22:29.858Z,23.60
2018-12-12T21:24:56.523Z,23.61
2018-12-12T21:27:23.164Z,23.60
2018-12-12T21:29:49.849Z,23.57
2018-12-12T21:32:16.542Z,23.59
2018-12-12T21:34:43.187Z,23.58
2018-12-12T21:37:09.833Z,23.54
2018-12-12T21:39:36.497Z,23.54
2018-12-12T21:42:03.188Z,23.56
2018-12-12T21:44:29.838Z,23.53
2018-12-12T21:46:56.484Z,23.55
2018-12-12T21:49:23.131Z,23.55
2018-12-12T21:51:49.783Z,23.51
2018-12-12T21:54:16.479Z,23.50
2018-12-12T21:56:43.121Z,23.52
2018-12-12T21:59:09.820Z,23.52
2018-12-12T22:01:36.465Z,23.50
2018-12-12T22:04:03.596Z,23.47
2018-12-12T22:06:30.259Z,23.48
2018-12-12T22:08:56.901Z,23.50
2018-12-12T22:11:23.588Z,23.49
2018-12-12T22:13:50.225Z,23.49
2018-12-12T22:16:16.917Z,23.45
2018-12-12T22:18:43.558Z,23.45
2018-12-12T22:21:10.201Z,23.44
2018-12-12T22:23:36.843Z,23.45
2018-12-12T22:26:03.490Z,23.46
2018-12-12T22:28:30.138Z,23.44
2018-12-12T22:30:56.919Z,23.42
2018-12-12T22:33:23.569Z,23.41
2018-12-12T22:35:50.222Z,23.40
2018-12-12T22:38:16.859Z,23.41
2018-12-12T22:40:43.511Z,23.39
2018-12-12T22:43:10.148Z,23.40
2018-12-12T22:45:36.788Z,23.38
2018-12-12T22:48:03.439Z,23.37
2018-12-12T22:50:30.076Z,23.41
2018-12-12T22:52:56.716Z,23.41
2018-12-12T22:55:23.408Z,23.38
2018-12-12T22:57:50.053Z,23.38
2018-12-12T23:00:16.713Z,23.38
2018-12-12T23:02:43.355Z,23.40
2018-12-12T23:05:10.051Z,23.36
2018-12-12T23:07:36.689Z,23.38
2018-12-12T23:10:03.382Z,23.38
2018-12-12T23:12:30.020Z,23.39
2018-12-12T23:14:56.722Z,23.35
2018-12-12T23:17:23.379Z,23.35
2018-12-12T23:19:50.106Z,23.34
2018-12-12T23:22:16.756Z,23.37
2018-12-12T23:24:43.393Z,23.35
2018-12-12T23:27:10.065Z,23.32
2018-12-12T23:29:36.805Z,23.34
2018-12-12T23:32:03.451Z,23.37
2018-12-12T23:34:30.090Z,23.34
2018-12-12T23:36:56.774Z,23.32
2018-12-12T23:39:23.475Z,23.29
2018-12-12T23:41:50.129Z,23.28
2018-12-12T23:44:16.865Z,23.30
2018-12-12T23:46:43.515Z,23.30
2018-12-12T23:49:10.153Z,23.27
2018-12-12T23:51:36.860Z,23.26
2018-12-12T23:54:03.498Z,23.25
2018-12-12T23:56:30.137Z,23.25
2018-12-12T23:58:56.791Z,23.25
